Terminal Aerodrome Forecast
Issued by NWS Sioux Falls, SD

Home | Current Version | Previous Version | Graphics & Text | Print | Product List | Glossary On
Versions: 1 2 3 4 5 6 7 8 9 10 11 12 13
569
FTUS43 KFSD 230521
TAFFSD
TAF
KFSD 230521Z 2306/2406 17015G23KT P6SM SCT250 WS015/20040KT
     FM231100 17012KT P6SM SCT250
     FM231500 17016G24KT P6SM SCT100
     FM231900 17019G29KT P6SM SCT100
     FM232300 16018G28KT P6SM SCT080
     FM240000 15013G19KT P6SM BKN060
      TEMPO 2400/2403 4SM TSRA BKN040CB
     FM240300 16007KT P6SM VCTS BKN050CB=

USA.gov is the U.S. government's official web portal to all federal, state and local government web resources and services.